AMX133 MMLO-MMMX
Flight info
| Callsign | AMX133 |
|---|---|
| Flight time | 0h 30m |
| Altitude | 29000 |
| Route | UKIRO1C UKIRO UT130 DARAN DARAN3A |
| Aircraft | B738/M-SDE2E3FGHIRWXY/LB1 |
Departure
| Time | 2026-04-16 03:08 |
|---|---|
| Airport | Guanajuato International Airport (MMLO) |
Arrival
| Time | 2026-04-16 03:38 |
|---|---|
| Airport | Mexico City Benito Juárez International Airport (MMMX) |
| Time | Latitude | Longitude | Altitude | Speed | Heading |
|---|---|---|---|---|---|
| 2026-04-16 03:02 | 20.98692 | -101.47854 | 5917 ft | 1 kts | 318° |
| 2026-04-16 03:03 | 20.98673 | -101.47841 | 5916 ft | 0 kts | 329° |
| 2026-04-16 03:03 | 20.98693 | -101.47848 | 5917 ft | 5 kts | 6° |
| 2026-04-16 03:04 | 20.98735 | -101.47822 | 5919 ft | 8 kts | 39° |
| 2026-04-16 03:04 | 20.98803 | -101.47820 | 5921 ft | 15 kts | 328° |
| 2026-04-16 03:04 | 20.98968 | -101.47980 | 5922 ft | 48 kts | 315° |
| 2026-04-16 03:04 | 20.99208 | -101.48235 | 5925 ft | 46 kts | 314° |
| 2026-04-16 03:05 | 20.99421 | -101.48483 | 5932 ft | 42 kts | 314° |
| 2026-04-16 03:05 | 20.99625 | -101.48656 | 5941 ft | 25 kts | 16° |
| 2026-04-16 03:05 | 20.99737 | -101.48566 | 5939 ft | 6 kts | 356° |
| 2026-04-16 03:05 | 20.99780 | -101.48599 | 5940 ft | 20 kts | 313° |
| 2026-04-16 03:06 | 20.99957 | -101.48786 | 5947 ft | 37 kts | 313° |
| 2026-04-16 03:06 | 21.00123 | -101.48978 | 5951 ft | 33 kts | 310° |
| 2026-04-16 03:06 | 21.00351 | -101.49286 | 5944 ft | 11 kts | 299° |
| 2026-04-16 03:07 | 21.00398 | -101.49274 | 5944 ft | 3 kts | 103° |
| 2026-04-16 03:07 | 21.00398 | -101.49273 | 5944 ft | 0 kts | 121° |
| 2026-04-16 03:07 | 21.00393 | -101.49265 | 5944 ft | 11 kts | 124° |
| 2026-04-16 03:07 | 21.00117 | -101.48961 | 5951 ft | 102 kts | 135° |
| 2026-04-16 03:08 | 20.99410 | -101.48190 | 5936 ft | 182 kts | 135° |
| 2026-04-16 03:08 | 20.98431 | -101.47171 | 6546 ft | 207 kts | 139° |
| 2026-04-16 03:08 | 20.97330 | -101.46195 | 7650 ft | 214 kts | 143° |
| 2026-04-16 03:08 | 20.95997 | -101.45106 | 7841 ft | 268 kts | 141° |
| 2026-04-16 03:09 | 20.94614 | -101.43776 | 8916 ft | 270 kts | 127° |
| 2026-04-16 03:09 | 20.93839 | -101.42012 | 10006 ft | 270 kts | 102° |
| 2026-04-16 03:09 | 20.93652 | -101.39966 | 10676 ft | 290 kts | 90° |
| 2026-04-16 03:09 | 20.93728 | -101.37755 | 11391 ft | 307 kts | 80° |
| 2026-04-16 03:10 | 20.94549 | -101.35610 | 12034 ft | 326 kts | 55° |
| 2026-04-16 03:10 | 20.96148 | -101.33790 | 12692 ft | 343 kts | 42° |
| 2026-04-16 03:10 | 20.97996 | -101.32069 | 13271 ft | 363 kts | 41° |
| 2026-04-16 03:10 | 20.99721 | -101.30070 | 14173 ft | 371 kts | 56° |
| 2026-04-16 03:11 | 21.00765 | -101.27541 | 15218 ft | 374 kts | 73° |
| 2026-04-16 03:11 | 21.01362 | -101.24818 | 16127 ft | 382 kts | 78° |
| 2026-04-16 03:11 | 21.01825 | -101.22041 | 17116 ft | 386 kts | 79° |
| 2026-04-16 03:11 | 21.02287 | -101.19230 | 18034 ft | 390 kts | 78° |
| 2026-04-16 03:12 | 21.02808 | -101.16331 | 18792 ft | 400 kts | 78° |
| 2026-04-16 03:12 | 21.03377 | -101.13411 | 19575 ft | 407 kts | 78° |
| 2026-04-16 03:12 | 21.03987 | -101.10452 | 20327 ft | 414 kts | 77° |
| 2026-04-16 03:12 | 21.04623 | -101.07457 | 21105 ft | 419 kts | 77° |
| 2026-04-16 03:13 | 21.05267 | -101.04403 | 21775 ft | 427 kts | 79° |
| 2026-04-16 03:13 | 21.05735 | -101.01263 | 22501 ft | 432 kts | 85° |
| 2026-04-16 03:13 | 21.05777 | -100.98025 | 23205 ft | 436 kts | 96° |
| 2026-04-16 03:13 | 21.05295 | -100.94813 | 23910 ft | 439 kts | 107° |
| 2026-04-16 03:14 | 21.04301 | -100.91747 | 24630 ft | 439 kts | 117° |
| 2026-04-16 03:14 | 21.02856 | -100.88928 | 25351 ft | 439 kts | 126° |
| 2026-04-16 03:14 | 21.01076 | -100.86227 | 26050 ft | 441 kts | 131° |
| 2026-04-16 03:14 | 20.99176 | -100.83637 | 26685 ft | 445 kts | 133° |
| 2026-04-16 03:15 | 20.97245 | -100.81092 | 27633 ft | 441 kts | 134° |
| 2026-04-16 03:15 | 20.95342 | -100.78567 | 28608 ft | 437 kts | 134° |
| 2026-04-16 03:15 | 20.93448 | -100.76032 | 29161 ft | 440 kts | 133° |
| 2026-04-16 03:15 | 20.91533 | -100.73447 | 29319 ft | 447 kts | 133° |
| 2026-04-16 03:16 | 20.89629 | -100.70848 | 29344 ft | 444 kts | 133° |
| 2026-04-16 03:16 | 20.85916 | -100.65709 | 29365 ft | 435 kts | 133° |
| 2026-04-16 03:17 | 20.82193 | -100.60537 | 29378 ft | 438 kts | 133° |
| 2026-04-16 03:17 | 20.78492 | -100.55395 | 29390 ft | 443 kts | 132° |
| 2026-04-16 03:17 | 20.76569 | -100.52732 | 29399 ft | 458 kts | 132° |
| 2026-04-16 03:18 | 20.74895 | -100.50420 | 29397 ft | 472 kts | 132° |
| 2026-04-16 03:18 | 20.71367 | -100.45541 | 29369 ft | 491 kts | 131° |
| 2026-04-16 03:19 | 20.67188 | -100.39730 | 29363 ft | 489 kts | 131° |
| 2026-04-16 03:19 | 20.63069 | -100.34003 | 29341 ft | 488 kts | 132° |
| 2026-04-16 03:20 | 20.58927 | -100.28252 | 29333 ft | 487 kts | 132° |
| 2026-04-16 03:20 | 20.54792 | -100.22524 | 29323 ft | 488 kts | 132° |
| 2026-04-16 03:21 | 20.50654 | -100.16801 | 29327 ft | 487 kts | 131° |
| 2026-04-16 03:21 | 20.46512 | -100.11076 | 29380 ft | 486 kts | 131° |
| 2026-04-16 03:22 | 20.42359 | -100.05348 | 29411 ft | 488 kts | 131° |
| 2026-04-16 03:22 | 20.38229 | -99.99655 | 29438 ft | 486 kts | 131° |
| 2026-04-16 03:23 | 20.34107 | -99.93979 | 29460 ft | 487 kts | 131° |
| 2026-04-16 03:23 | 20.29967 | -99.88281 | 29478 ft | 486 kts | 131° |
| 2026-04-16 03:24 | 20.25825 | -99.82598 | 29477 ft | 484 kts | 132° |
| 2026-04-16 03:24 | 20.21251 | -99.77443 | 29310 ft | 478 kts | 144° |
| 2026-04-16 03:24 | 20.18523 | -99.75432 | 29209 ft | 472 kts | 153° |
| 2026-04-16 03:25 | 20.15719 | -99.73618 | 28977 ft | 471 kts | 150° |
| 2026-04-16 03:25 | 20.13051 | -99.71659 | 28581 ft | 464 kts | 147° |
| 2026-04-16 03:25 | 20.10454 | -99.69583 | 27873 ft | 459 kts | 145° |
| 2026-04-16 03:25 | 20.07985 | -99.67532 | 27148 ft | 446 kts | 145° |
| 2026-04-16 03:26 | 20.05588 | -99.65524 | 26423 ft | 434 kts | 144° |
| 2026-04-16 03:26 | 20.03239 | -99.63567 | 25694 ft | 423 kts | 145° |
| 2026-04-16 03:26 | 20.00949 | -99.61683 | 24971 ft | 413 kts | 145° |
| 2026-04-16 03:26 | 19.98688 | -99.59846 | 24246 ft | 404 kts | 146° |
| 2026-04-16 03:27 | 19.96477 | -99.58067 | 23528 ft | 396 kts | 146° |
| 2026-04-16 03:27 | 19.94297 | -99.56325 | 22816 ft | 389 kts | 146° |
| 2026-04-16 03:27 | 19.92143 | -99.54612 | 22120 ft | 382 kts | 146° |
| 2026-04-16 03:27 | 19.90046 | -99.52948 | 21448 ft | 375 kts | 145° |
| 2026-04-16 03:28 | 19.87969 | -99.51302 | 20772 ft | 370 kts | 145° |
| 2026-04-16 03:28 | 19.85928 | -99.49686 | 20098 ft | 365 kts | 144° |
| 2026-04-16 03:28 | 19.83895 | -99.48080 | 19422 ft | 360 kts | 144° |
| 2026-04-16 03:28 | 19.81926 | -99.46526 | 18762 ft | 356 kts | 144° |
| 2026-04-16 03:29 | 19.79949 | -99.44963 | 18093 ft | 352 kts | 143° |
| 2026-04-16 03:29 | 19.77982 | -99.43410 | 17423 ft | 349 kts | 143° |
| 2026-04-16 03:29 | 19.76036 | -99.41872 | 16760 ft | 346 kts | 143° |
| 2026-04-16 03:29 | 19.74133 | -99.40368 | 16107 ft | 344 kts | 143° |
| 2026-04-16 03:30 | 19.72230 | -99.38866 | 15451 ft | 341 kts | 142° |
| 2026-04-16 03:30 | 19.70325 | -99.37363 | 14789 ft | 338 kts | 142° |
| 2026-04-16 03:30 | 19.68439 | -99.35877 | 14112 ft | 335 kts | 142° |
| 2026-04-16 03:30 | 19.66597 | -99.34423 | 13449 ft | 332 kts | 142° |
| 2026-04-16 03:31 | 19.65307 | -99.33404 | 12986 ft | 330 kts | 142° |
| 2026-04-16 03:31 | 19.63493 | -99.31973 | 12473 ft | 322 kts | 142° |
| 2026-04-16 03:31 | 19.61746 | -99.30597 | 12300 ft | 302 kts | 142° |
| 2026-04-16 03:31 | 19.60108 | -99.29311 | 12280 ft | 280 kts | 141° |
| 2026-04-16 03:32 | 19.58566 | -99.28101 | 12275 ft | 270 kts | 142° |
| 2026-04-16 03:32 | 19.57028 | -99.26897 | 12284 ft | 283 kts | 142° |
| 2026-04-16 03:34 | 19.43492 | -99.25396 | 11207 ft | 267 kts | 185° |
| 2026-04-16 03:34 | 19.41758 | -99.25118 | 10853 ft | 244 kts | 154° |
| 2026-04-16 03:34 | 19.40364 | -99.24213 | 10504 ft | 227 kts | 142° |
| 2026-04-16 03:34 | 19.39101 | -99.23257 | 10147 ft | 217 kts | 143° |
| 2026-04-16 03:35 | 19.37946 | -99.22303 | 9932 ft | 207 kts | 134° |
| 2026-04-16 03:35 | 19.37134 | -99.21076 | 9923 ft | 206 kts | 105° |
| 2026-04-16 03:35 | 19.37089 | -99.19576 | 9930 ft | 204 kts | 73° |
| 2026-04-16 03:35 | 19.37661 | -99.18209 | 9919 ft | 202 kts | 59° |
| 2026-04-16 03:36 | 19.38388 | -99.16946 | 9885 ft | 201 kts | 58° |
| 2026-04-16 03:36 | 19.39087 | -99.15646 | 9714 ft | 200 kts | 64° |
| 2026-04-16 03:36 | 19.39664 | -99.14318 | 9153 ft | 202 kts | 64° |
| 2026-04-16 03:36 | 19.40288 | -99.12985 | 8526 ft | 204 kts | 61° |
| 2026-04-16 03:37 | 19.40964 | -99.11716 | 8188 ft | 191 kts | 59° |
| 2026-04-16 03:37 | 19.41624 | -99.10535 | 7864 ft | 181 kts | 60° |
| 2026-04-16 03:37 | 19.42234 | -99.09418 | 7581 ft | 171 kts | 58° |
| 2026-04-16 03:37 | 19.42824 | -99.08376 | 7365 ft | 156 kts | 59° |
| 2026-04-16 03:38 | 19.43300 | -99.07523 | 7345 ft | 106 kts | 58° |
| 2026-04-16 03:38 | 19.43589 | -99.07004 | 7341 ft | 67 kts | 59° |
| 2026-04-16 03:38 | 19.43814 | -99.06612 | 7338 ft | 70 kts | 58° |
| 2026-04-16 03:38 | 19.43955 | -99.06303 | 7332 ft | 43 kts | 76° |
| 2026-04-16 03:39 | 19.43970 | -99.06149 | 7332 ft | 0 kts | 89° |
| 2026-04-16 03:40 | 19.43972 | -99.06079 | 7332 ft | 12 kts | 92° |
| 2026-04-16 03:40 | 19.43941 | -99.06055 | 7333 ft | 4 kts | 220° |
| 2026-04-16 03:40 | 19.43921 | -99.06083 | 7333 ft | 6 kts | 238° |
| 2026-04-16 03:40 | 19.43838 | -99.06222 | 7332 ft | 39 kts | 238° |
| 2026-04-16 03:41 | 19.43635 | -99.06579 | 7338 ft | 67 kts | 241° |
| 2026-04-16 03:41 | 19.43482 | -99.06741 | 7339 ft | 19 kts | 206° |
| 2026-04-16 03:41 | 19.43360 | -99.06801 | 7339 ft | 18 kts | 204° |
| 2026-04-16 03:41 | 19.43304 | -99.06870 | 7339 ft | 8 kts | 219° |
| 2026-04-16 03:42 | 19.43267 | -99.06937 | 7340 ft | 22 kts | 242° |
| 2026-04-16 03:42 | 19.43191 | -99.07118 | 7340 ft | 26 kts | 240° |
| 2026-04-16 03:42 | 19.43103 | -99.07287 | 7340 ft | 25 kts | 243° |
| 2026-04-16 03:42 | 19.43026 | -99.07443 | 7344 ft | 22 kts | 239° |
| 2026-04-16 03:43 | 19.42958 | -99.07555 | 7345 ft | 21 kts | 238° |
| 2026-04-16 03:43 | 19.42881 | -99.07692 | 7345 ft | 20 kts | 241° |
| 2026-04-16 03:44 | 19.42812 | -99.07819 | 7344 ft | 19 kts | 239° |
| 2026-04-16 03:44 | 19.42759 | -99.07876 | 7345 ft | 8 kts | 179° |
| 2026-04-16 03:44 | 19.42714 | -99.07856 | 7345 ft | 5 kts | 144° |
| 2026-04-16 03:44 | 19.42681 | -99.07835 | 7344 ft | 5 kts | 150° |
| 2026-04-16 03:45 | 19.42651 | -99.07818 | 7344 ft | 4 kts | 155° |
| 2026-04-16 03:45 | 19.42590 | -99.07867 | 7344 ft | 22 kts | 232° |
| 2026-04-16 03:45 | 19.42502 | -99.08009 | 7345 ft | 22 kts | 237° |
| 2026-04-16 03:45 | 19.42426 | -99.08141 | 7347 ft | 20 kts | 239° |
| 2026-04-16 03:46 | 19.42328 | -99.08202 | 7345 ft | 13 kts | 184° |
| 2026-04-16 03:46 | 19.42273 | -99.08180 | 7345 ft | 5 kts | 130° |
| 2026-04-16 03:46 | 19.42255 | -99.08156 | 7345 ft | 2 kts | 126° |
| 2026-04-16 03:46 | 19.42247 | -99.08143 | 7345 ft | 2 kts | 121° |
| 2026-04-16 03:47 | 19.42239 | -99.08129 | 7345 ft | 2 kts | 121° |